Time;durP1;ratioP1;P1;durP2;ratioP2;P2;SDS_P1;SDS_P2;PMS_P1;PMS_P2;Temp;Humidity;BMP_temperature;BMP_pressure;BME280_temperature;BME280_humidity;BME280_pressure;Samples;Min_cycle;Max_cycle;Signal;HPM_P1;HPM_P2
2023/10/21 00:02:11;;;;;;;0.30;0.30;;;;;;;17.41;91.87;97353.13;5074506;28;20024;-57
2023/10/21 00:04:36;;;;;;;0.30;0.30;;;;;;;17.36;91.38;97359.97;5071691;28;20806;-57
2023/10/21 00:07:02;;;;;;;0.30;0.30;;;;;;;17.40;91.68;97378.28;5071483;28;20043;-57
2023/10/21 00:09:27;;;;;;;0.30;0.30;;;;;;;17.40;91.73;97389.03;5076376;28;20511;-58
2023/10/21 00:11:53;;;;;;;0.30;0.30;;;;;;;17.42;91.90;97381.66;5073127;28;20044;-58
2023/10/21 00:14:18;;;;;;;0.30;0.30;;;;;;;17.36;91.30;97395.75;5084253;28;20020;-58
2023/10/21 00:16:44;;;;;;;0.40;0.40;;;;;;;17.34;91.08;97389.69;5074044;28;20457;-58
2023/10/21 00:19:10;;;;;;;0.30;0.30;;;;;;;17.37;91.48;97405.47;5070646;28;20064;-58
2023/10/21 00:21:36;;;;;;;0.20;0.20;;;;;;;17.32;91.41;97421.22;5074019;28;20029;-57
2023/10/21 00:24:03;;;;;;;0.30;0.30;;;;;;;17.24;92.82;97439.97;5073981;28;20448;-58
2023/10/21 00:26:28;;;;;;;0.40;0.40;;;;;;;17.27;93.37;97439.66;5079099;28;20353;-58
2023/10/21 00:28:53;;;;;;;0.30;0.30;;;;;;;17.25;94.61;97443.50;5090144;28;20035;-57
2023/10/21 00:31:19;;;;;;;0.30;0.30;;;;;;;17.22;95.25;97460.75;5091082;28;20035;-58
2023/10/21 00:33:44;;;;;;;0.30;0.30;;;;;;;17.16;96.17;97460.53;5091613;28;20024;-58
2023/10/21 00:36:10;;;;;;;0.30;0.30;;;;;;;17.08;97.80;97463.97;5084556;28;20387;-58
2023/10/21 00:38:35;;;;;;;0.30;0.30;;;;;;;17.01;98.93;97468.28;5081523;28;20433;-58
2023/10/21 00:41:00;;;;;;;0.30;0.30;;;;;;;16.95;99.36;97474.25;5071326;28;20028;-58
2023/10/21 00:43:39;;;;;;;0.30;0.30;;;;;;;16.96;99.54;97478.63;5078105;28;20036;-57
2023/10/21 00:46:06;;;;;;;0.30;0.30;;;;;;;16.97;99.69;97496.41;5070951;28;20024;-57
2023/10/21 00:48:32;;;;;;;0.40;0.40;;;;;;;16.94;99.93;97494.03;5079548;28;20039;-57
2023/10/21 00:50:58;;;;;;;0.30;0.30;;;;;;;16.92;99.73;97506.75;5077740;28;20036;-58
2023/10/21 00:53:24;;;;;;;0.40;0.40;;;;;;;16.95;99.36;97501.09;5081117;28;20027;-57
2023/10/21 00:55:51;;;;;;;0.32;0.32;;;;;;;16.96;98.54;97518.91;5082673;28;20135;-58
2023/10/21 00:58:17;;;;;;;0.30;0.30;;;;;;;16.98;98.47;97523.09;5070948;28;20025;-58
2023/10/21 01:00:43;;;;;;;0.30;0.30;;;;;;;17.04;97.65;97527.03;5070828;28;20024;-58
2023/10/21 01:03:09;;;;;;;0.30;0.30;;;;;;;17.04;97.16;97527.03;5082393;28;20460;-58
2023/10/21 01:05:34;;;;;;;0.40;0.40;;;;;;;17.05;97.17;97531.41;5083142;28;20036;-58
2023/10/21 01:08:00;;;;;;;0.30;0.30;;;;;;;17.08;96.75;97531.13;5070529;28;20033;-58
2023/10/21 01:10:25;;;;;;;0.30;0.30;;;;;;;17.10;96.31;97542.56;5070465;28;20049;-58
2023/10/21 01:12:51;;;;;;;0.30;0.30;;;;;;;17.11;95.25;97546.94;5071501;28;20051;-58
2023/10/21 01:15:16;;;;;;;0.30;0.30;;;;;;;17.17;94.63;97548.16;5073723;28;20023;-58
2023/10/21 01:17:47;;;;;;;0.30;0.30;;;;;;;17.18;94.32;97558.78;5085120;28;20030;-58
2023/10/21 01:20:13;;;;;;;0.30;0.30;;;;;;;17.21;94.01;97561.16;5076412;28;20128;-58
2023/10/21 01:22:38;;;;;;;0.30;0.30;;;;;;;17.24;94.30;97566.22;5073581;28;20079;-58
2023/10/21 01:25:04;;;;;;;0.40;0.40;;;;;;;17.21;94.98;97569.22;5087953;28;20020;-58
2023/10/21 01:27:30;;;;;;;0.30;0.30;;;;;;;17.17;94.94;97575.03;5086854;28;20028;-59
2023/10/21 01:29:55;;;;;;;0.30;0.30;;;;;;;17.15;95.09;97577.88;5087263;28;20086;-58
2023/10/21 01:32:20;;;;;;;0.30;0.30;;;;;;;17.12;94.58;97580.03;5072305;28;20032;-59
2023/10/21 01:34:46;;;;;;;0.30;0.30;;;;;;;17.16;94.59;97579.56;5069829;28;20051;-58
2023/10/21 01:37:11;;;;;;;0.30;0.30;;;;;;;17.15;94.41;97585.94;5069912;28;20430;-58
2023/10/21 01:39:37;;;;;;;0.30;0.30;;;;;;;17.17;94.68;97589.31;5070159;28;20024;-58
2023/10/21 01:42:03;;;;;;;0.30;0.30;;;;;;;17.18;94.09;97599.09;5072485;28;20024;-58
2023/10/21 01:44:28;;;;;;;0.30;0.30;;;;;;;17.19;93.58;97598.06;5070201;28;20038;-58
2023/10/21 01:46:55;;;;;;;0.30;0.30;;;;;;;17.22;93.71;97610.34;5072307;28;20106;-57
2023/10/21 01:49:20;;;;;;;0.30;0.30;;;;;;;17.21;93.71;97614.03;5085746;28;20479;-57
2023/10/21 01:51:46;;;;;;;0.40;0.40;;;;;;;17.19;93.63;97622.25;5077228;28;20047;-58
2023/10/21 01:54:11;;;;;;;0.30;0.30;;;;;;;17.17;93.39;97632.28;5074149;28;20104;-57
2023/10/21 01:56:36;;;;;;;0.30;0.30;;;;;;;17.20;93.05;97623.94;5089099;28;20031;-57
2023/10/21 01:59:02;;;;;;;0.30;0.30;;;;;;;17.20;92.79;97631.16;5087495;28;20028;-57
2023/10/21 02:01:27;;;;;;;0.30;0.30;;;;;;;17.20;93.15;97636.53;5089535;28;20064;-58
2023/10/21 02:03:54;;;;;;;0.30;0.30;;;;;;;17.18;92.66;97644.75;5088934;28;20031;-57
2023/10/21 02:06:19;;;;;;;0.30;0.30;;;;;;;17.17;93.11;97644.88;5076142;28;20029;-58
2023/10/21 02:08:44;;;;;;;0.38;0.38;;;;;;;17.14;92.95;97646.03;5074936;28;20028;-58
2023/10/21 02:11:10;;;;;;;0.30;0.30;;;;;;;17.09;93.26;97659.06;5080153;28;20048;-58
2023/10/21 02:13:35;;;;;;;0.30;0.30;;;;;;;17.05;93.67;97668.41;5068857;28;20034;-58
2023/10/21 02:16:01;;;;;;;0.30;0.30;;;;;;;17.01;94.28;97672.38;5070435;28;20361;-57
2023/10/21 02:18:26;;;;;;;0.30;0.30;;;;;;;16.99;93.91;97675.22;5070327;28;20143;-57
2023/10/21 02:20:51;;;;;;;0.30;0.30;;;;;;;16.97;94.21;97682.56;5070807;28;20036;-57
2023/10/21 02:23:17;;;;;;;0.30;0.30;;;;;;;16.96;94.24;97701.53;5080660;28;20035;-57
2023/10/21 02:25:42;;;;;;;0.40;0.40;;;;;;;16.96;94.75;97706.88;5087503;28;20810;-57
2023/10/21 02:28:09;;;;;;;0.30;0.30;;;;;;;16.97;94.08;97717.47;5069025;28;20032;-57
2023/10/21 02:30:35;;;;;;;0.30;0.30;;;;;;;16.99;94.23;97720.88;5088662;28;20030;-58
2023/10/21 02:33:01;;;;;;;0.30;0.30;;;;;;;16.96;93.78;97723.00;5089200;28;20455;-57
2023/10/21 02:35:26;;;;;;;0.30;0.30;;;;;;;16.98;94.05;97731.75;5084945;28;20035;-58
2023/10/21 02:37:52;;;;;;;0.40;0.40;;;;;;;16.99;93.89;97738.81;5089213;28;20035;-57
2023/10/21 02:40:17;;;;;;;0.40;0.40;;;;;;;17.03;94.25;97745.63;5089137;28;20441;-57
2023/10/21 02:42:44;;;;;;;0.40;0.40;;;;;;;17.03;94.04;97748.28;5074904;28;20032;-58
2023/10/21 02:45:10;;;;;;;0.40;0.40;;;;;;;17.04;93.43;97752.66;5081719;28;20106;-57
2023/10/21 02:47:36;;;;;;;0.40;0.40;;;;;;;17.07;93.82;97753.22;5088845;28;20120;-58
2023/10/21 02:50:05;;;;;;;0.22;0.22;;;;;;;17.10;93.76;97760.13;5087428;28;20028;-57
2023/10/21 02:52:30;;;;;;;0.40;0.40;;;;;;;17.12;93.41;97770.75;5085849;28;20043;-57
2023/10/21 02:54:55;;;;;;;0.40;0.40;;;;;;;17.06;93.07;97767.66;5075390;28;20024;-57
2023/10/21 02:57:21;;;;;;;0.30;0.30;;;;;;;17.04;92.73;97774.16;5087446;28;20115;-57
2023/10/21 02:59:46;;;;;;;0.40;0.40;;;;;;;17.09;92.99;97771.88;5071734;28;20111;-57
2023/10/21 03:02:13;;;;;;;0.30;0.30;;;;;;;17.11;92.98;97777.97;5072270;28;20097;-58
2023/10/21 03:04:39;;;;;;;0.40;0.40;;;;;;;17.09;93.21;97777.25;5080537;28;20554;-57
2023/10/21 03:07:04;;;;;;;0.40;0.40;;;;;;;17.07;93.41;97784.59;5091132;28;20088;-58
2023/10/21 03:09:30;;;;;;;0.32;0.32;;;;;;;17.04;92.62;97787.59;5090930;28;20034;-57
2023/10/21 03:11:55;;;;;;;0.40;0.40;;;;;;;17.02;92.23;97782.34;5090213;28;20064;-57
2023/10/21 03:14:20;;;;;;;0.30;0.30;;;;;;;17.04;92.19;97784.91;5059930;28;20523;-58
2023/10/21 03:16:48;;;;;;;0.30;0.30;;;;;;;17.02;91.82;97787.72;5051482;28;20132;-57
2023/10/21 03:19:14;;;;;;;0.30;0.30;;;;;;;17.00;91.60;97783.50;5054361;28;20081;-57
2023/10/21 03:21:39;;;;;;;0.30;0.30;;;;;;;17.01;91.32;97795.94;5051944;28;20086;-57
2023/10/21 03:24:05;;;;;;;0.30;0.30;;;;;;;17.03;91.26;97804.69;5068247;28;20092;-57
2023/10/21 03:26:30;;;;;;;0.30;0.30;;;;;;;17.02;91.63;97803.84;5063188;28;20036;-57
2023/10/21 03:28:56;;;;;;;0.30;0.30;;;;;;;17.02;91.25;97814.59;5052291;28;20086;-57
2023/10/21 03:31:22;;;;;;;0.30;0.30;;;;;;;16.99;91.60;97814.03;5054800;28;20024;-57
2023/10/21 03:33:47;;;;;;;0.30;0.30;;;;;;;16.99;91.39;97822.06;5052801;28;20029;-57
2023/10/21 03:36:13;;;;;;;0.40;0.40;;;;;;;16.93;91.25;97815.44;5052780;28;20028;-57
2023/10/21 03:38:38;;;;;;;0.30;0.30;;;;;;;16.94;91.37;97824.34;5054882;28;20629;-58
2023/10/21 03:41:09;;;;;;;0.40;0.40;;;;;;;16.93;91.25;97834.22;5052233;28;20031;-57
2023/10/21 03:43:35;;;;;;;0.30;0.30;;;;;;;16.90;90.94;97833.69;5052136;28;20688;-57
2023/10/21 03:46:04;;;;;;;0.30;0.30;;;;;;;16.91;91.42;97832.69;5054306;28;20473;-57
2023/10/21 03:48:29;;;;;;;0.30;0.30;;;;;;;16.93;91.68;97841.47;5075227;28;20024;-58
2023/10/21 03:51:05;;;;;;;0.30;0.30;;;;;;;16.83;91.18;97840.63;5089486;28;20024;-57
2023/10/21 03:53:32;;;;;;;0.30;0.30;;;;;;;16.88;91.47;97855.31;5067734;28;20032;-58
2023/10/21 03:55:58;;;;;;;0.40;0.40;;;;;;;16.92;91.76;97861.22;5056083;28;20029;-57
2023/10/21 03:58:24;;;;;;;0.30;0.30;;;;;;;16.90;91.16;97864.06;5050286;28;20431;-58
2023/10/21 04:00:50;;;;;;;0.30;0.30;;;;;;;16.92;91.51;97870.16;5051973;28;20039;-58
2023/10/21 04:03:15;;;;;;;0.30;0.30;;;;;;;16.91;92.34;97870.28;5050324;28;20033;-58
2023/10/21 04:05:42;;;;;;;0.30;0.30;;;;;;;16.93;92.44;97873.69;5050730;28;20354;-57
2023/10/21 04:08:07;;;;;;;0.30;0.30;;;;;;;16.91;92.52;97887.25;5053126;28;20039;-57
2023/10/21 04:10:33;;;;;;;0.30;0.30;;;;;;;16.90;92.74;97884.72;5055366;28;20024;-57
2023/10/21 04:12:59;;;;;;;0.30;0.30;;;;;;;16.88;93.50;97886.69;5086272;28;20052;-57
2023/10/21 04:15:25;;;;;;;0.30;0.30;;;;;;;16.88;93.10;97897.44;5071260;28;20024;-58
2023/10/21 04:17:50;;;;;;;0.30;0.30;;;;;;;16.87;93.50;97907.31;5067825;28;20495;-57
2023/10/21 04:20:18;;;;;;;0.20;0.20;;;;;;;16.86;94.16;97904.78;5071782;28;20111;-58
2023/10/21 04:22:44;;;;;;;0.30;0.30;;;;;;;16.86;94.02;97904.78;5071413;28;20056;-58
2023/10/21 04:25:10;;;;;;;0.30;0.30;;;;;;;16.88;94.25;97905.47;5067795;28;20071;-57
2023/10/21 04:27:36;;;;;;;0.30;0.30;;;;;;;16.87;94.48;97914.50;5071038;28;20036;-58
2023/10/21 04:30:03;;;;;;;0.30;0.30;;;;;;;16.87;95.05;97915.38;5070793;28;20020;-57
2023/10/21 04:32:29;;;;;;;0.30;0.30;;;;;;;16.85;95.16;97917.34;5056287;28;20029;-58
2023/10/21 04:34:55;;;;;;;0.30;0.30;;;;;;;16.86;95.53;97910.13;5051514;28;20108;-58
2023/10/21 04:37:20;;;;;;;0.30;0.30;;;;;;;16.84;95.87;97934.44;5061084;28;20021;-57
2023/10/21 04:39:46;;;;;;;0.30;0.30;;;;;;;16.78;95.67;97934.16;5051645;28;20021;-58
2023/10/21 04:42:11;;;;;;;0.30;0.30;;;;;;;16.76;96.44;97947.72;5053113;28;20036;-58
2023/10/21 04:44:37;;;;;;;0.30;0.30;;;;;;;16.76;96.79;97957.59;5051023;28;20108;-57
2023/10/21 04:47:03;;;;;;;0.30;0.30;;;;;;;16.71;97.20;97949.97;5050962;28;20477;-58
2023/10/21 04:49:28;;;;;;;0.30;0.30;;;;;;;16.75;97.74;97955.91;5053343;28;20480;-58
2023/10/21 04:51:53;;;;;;;0.30;0.30;;;;;;;16.77;97.63;97949.41;5050459;28;20091;-58
2023/10/21 04:54:19;;;;;;;0.30;0.30;;;;;;;16.77;97.74;97960.16;5066433;28;20436;-58
2023/10/21 04:56:44;;;;;;;0.30;0.30;;;;;;;16.76;98.04;97968.34;5049757;28;20021;-58
2023/10/21 04:59:10;;;;;;;0.30;0.30;;;;;;;16.76;98.17;97963.84;5052412;28;20109;-57
2023/10/21 05:01:35;;;;;;;0.40;0.40;;;;;;;16.76;97.87;97973.72;5059590;28;20027;-57
2023/10/21 05:04:01;;;;;;;0.30;0.30;;;;;;;16.76;98.34;97985.31;5069757;28;20111;-58
2023/10/21 05:06:26;;;;;;;0.30;0.30;;;;;;;16.79;98.20;97982.34;5069514;28;20040;-58
2023/10/21 05:08:52;;;;;;;0.30;0.30;;;;;;;16.74;98.20;97976.53;5054187;28;20041;-58
2023/10/21 05:11:17;;;;;;;0.30;0.30;;;;;;;16.74;98.01;97987.28;5080942;28;20190;-58
2023/10/21 05:13:42;;;;;;;0.40;0.40;;;;;;;16.73;98.21;98006.22;5062230;28;20520;-59
2023/10/21 05:16:08;;;;;;;0.40;0.40;;;;;;;16.69;98.60;98002.94;5058273;28;20032;-59
2023/10/21 05:18:33;;;;;;;0.40;0.40;;;;;;;16.70;98.33;98010.03;5070365;28;20043;-59
2023/10/21 05:20:59;;;;;;;0.30;0.30;;;;;;;16.66;98.20;98019.34;5072989;28;20020;-58
2023/10/21 05:23:24;;;;;;;0.30;0.30;;;;;;;16.69;98.23;98034.31;5065604;28;20035;-58
2023/10/21 05:25:50;;;;;;;0.30;0.30;;;;;;;16.66;98.55;98032.75;5064733;28;20028;-58
2023/10/21 05:28:15;;;;;;;0.35;0.35;;;;;;;16.70;98.10;98036.03;5052643;28;20035;-58
2023/10/21 05:30:43;;;;;;;0.30;0.30;;;;;;;16.68;98.06;98046.03;5050309;28;20043;-58
2023/10/21 05:33:09;;;;;;;0.30;0.30;;;;;;;16.64;97.96;98044.59;5049972;28;20017;-58
2023/10/21 05:35:34;;;;;;;0.30;0.30;;;;;;;16.65;97.88;98057.06;5063154;28;20191;-57
2023/10/21 05:37:59;;;;;;;0.30;0.30;;;;;;;16.64;98.14;98061.56;5052344;28;20028;-58
2023/10/21 05:40:25;;;;;;;0.30;0.30;;;;;;;16.66;98.21;98074.84;5052771;28;20047;-58
2023/10/21 05:42:50;;;;;;;0.30;0.30;;;;;;;16.65;98.10;98070.47;5050251;28;20059;-58
2023/10/21 05:45:16;;;;;;;0.38;0.38;;;;;;;16.62;98.10;98078.81;5055284;28;20036;-58
2023/10/21 05:47:41;;;;;;;0.30;0.30;;;;;;;16.54;98.29;98084.81;5089581;28;20019;-58
2023/10/21 05:50:07;;;;;;;0.30;0.30;;;;;;;16.53;98.21;98093.00;5089219;28;20039;-58
2023/10/21 05:52:32;;;;;;;0.40;0.40;;;;;;;16.48;98.04;98092.56;5073047;28;20063;-58
2023/10/21 05:54:58;;;;;;;0.30;0.30;;;;;;;16.44;98.54;98101.84;5064571;28;20024;-58
2023/10/21 05:57:23;;;;;;;0.40;0.40;;;;;;;16.42;98.81;98101.13;5071050;28;20028;-59
2023/10/21 05:59:48;;;;;;;0.30;0.30;;;;;;;16.36;98.88;98109.72;5064671;28;20123;-59
2023/10/21 06:02:14;;;;;;;0.40;0.40;;;;;;;16.26;99.14;98109.63;5051078;28;20032;-59
2023/10/21 06:04:42;;;;;;;0.30;0.30;;;;;;;16.25;98.74;98128.53;5048885;28;20404;-59
2023/10/21 06:07:07;;;;;;;0.40;0.40;;;;;;;16.19;98.77;98129.06;5057293;28;20493;-59
2023/10/21 06:09:33;;;;;;;0.40;0.40;;;;;;;16.17;98.54;98126.53;5068060;28;20170;-58
2023/10/21 06:11:59;;;;;;;0.30;0.30;;;;;;;16.10;98.40;98129.84;5077335;28;20135;-59
2023/10/21 06:14:24;;;;;;;0.30;0.30;;;;;;;16.10;98.71;98145.94;5076995;28;20031;-59
2023/10/21 06:16:50;;;;;;;0.30;0.30;;;;;;;16.08;99.06;98142.56;5074028;28;20103;-59
2023/10/21 06:19:18;;;;;;;0.30;0.30;;;;;;;16.01;98.79;98141.38;5071463;28;20033;-58
2023/10/21 06:21:44;;;;;;;0.30;0.30;;;;;;;16.03;99.01;98153.66;5071679;28;20024;-59
2023/10/21 06:24:09;;;;;;;0.40;0.40;;;;;;;16.02;99.17;98165.38;5084373;28;20076;-58
2023/10/21 06:26:34;;;;;;;0.30;0.30;;;;;;;15.97;98.86;98177.44;5051247;28;20043;-59
2023/10/21 06:29:00;;;;;;;0.40;0.40;;;;;;;15.97;99.46;98183.69;5081222;28;20028;-59
2023/10/21 06:31:26;;;;;;;0.30;0.30;;;;;;;15.94;99.38;98189.31;5080014;28;20650;-59
2023/10/21 06:33:53;;;;;;;0.40;0.40;;;;;;;15.95;99.52;98185.63;5084681;28;20044;-59
2023/10/21 06:36:19;;;;;;;0.30;0.30;;;;;;;15.99;99.19;98196.94;5071747;28;20031;-59
2023/10/21 06:38:44;;;;;;;0.30;0.30;;;;;;;16.05;98.45;98207.16;5082101;28;20735;-59
2023/10/21 06:41:12;;;;;;;0.40;0.40;;;;;;;16.03;98.31;98203.78;5086370;28;20114;-58
2023/10/21 06:43:38;;;;;;;0.30;0.30;;;;;;;16.03;99.02;98207.28;5088469;28;20019;-59
2023/10/21 06:46:06;;;;;;;0.30;0.30;;;;;;;15.99;99.09;98219.25;5069990;28;20028;-59
2023/10/21 06:48:31;;;;;;;0.40;0.40;;;;;;;15.96;99.12;98229.41;5084107;28;20121;-58
2023/10/21 06:50:57;;;;;;;0.30;0.30;;;;;;;15.97;98.65;98236.44;5088073;28;20539;-59
2023/10/21 06:53:23;;;;;;;0.30;0.30;;;;;;;15.97;99.05;98241.81;5079959;28;20044;-59
2023/10/21 06:55:49;;;;;;;0.30;0.30;;;;;;;16.05;99.42;98247.38;5077519;28;20028;-59
2023/10/21 06:58:15;;;;;;;0.38;0.38;;;;;;;16.13;99.37;98244.94;5087963;28;20407;-59
2023/10/21 07:00:41;;;;;;;0.30;0.30;;;;;;;16.23;99.49;98244.03;5085801;28;20024;-58
2023/10/21 07:03:07;;;;;;;0.40;0.40;;;;;;;16.85;100.00;98252.19;5068912;28;20051;-58
2023/10/21 07:05:34;;;;;;;0.30;0.30;;;;;;;18.41;96.36;98252.47;5068673;28;20037;-58
2023/10/21 07:08:00;;;;;;;0.30;0.30;;;;;;;20.66;80.51;98261.81;5069034;28;20028;-58
2023/10/21 07:10:29;;;;;;;0.30;0.30;;;;;;;22.43;65.93;98270.97;5071716;28;20031;-58
2023/10/21 07:12:55;;;;;;;0.20;0.20;;;;;;;24.06;59.06;98272.38;5057386;28;20066;-59
2023/10/21 07:15:20;;;;;;;0.20;0.20;;;;;;;25.19;52.71;98286.94;5048867;28;20861;-58
2023/10/21 07:17:46;;;;;;;0.20;0.20;;;;;;;25.83;50.46;98302.66;5050781;28;20106;-59
2023/10/21 07:20:13;;;;;;;0.10;0.10;;;;;;;26.34;48.50;98294.59;5048866;28;20116;-59
2023/10/21 07:22:42;;;;;;;0.20;0.20;;;;;;;26.56;46.89;98296.31;5052394;28;20028;-59
2023/10/21 07:25:08;;;;;;;0.15;0.15;;;;;;;27.09;45.48;98304.06;5064379;28;20025;-59
2023/10/21 07:27:33;;;;;;;0.10;0.10;;;;;;;27.17;44.38;98309.41;5056723;28;20078;-59
2023/10/21 07:29:59;;;;;;;0.20;0.20;;;;;;;26.79;45.59;98310.69;5048506;28;20104;-59
2023/10/21 07:32:24;;;;;;;0.10;0.10;;;;;;;26.41;45.35;98320.06;5057880;28;20116;-59
2023/10/21 07:34:50;;;;;;;0.20;0.20;;;;;;;25.85;47.25;98321.56;5048366;28;20491;-59
2023/10/21 07:37:16;;;;;;;0.10;0.10;;;;;;;26.63;45.79;98324.53;5050783;28;20645;-59
2023/10/21 07:39:41;;;;;;;0.10;0.10;;;;;;;27.58;44.21;98334.19;5050545;28;20037;-59
2023/10/21 07:42:06;;;;;;;0.10;0.10;;;;;;;27.54;43.50;98339.19;5051400;28;20128;-59
2023/10/21 07:44:32;;;;;;;0.10;0.10;;;;;;;27.88;43.11;98347.44;5047137;28;20039;-59
2023/10/21 07:46:57;;;;;;;0.10;0.10;;;;;;;28.48;42.37;98350.34;5055468;28;20063;-59
2023/10/21 07:49:24;;;;;;;0.10;0.10;;;;;;;28.09;41.62;98350.13;5070283;28;20032;-59
2023/10/21 07:51:49;;;;;;;0.10;0.10;;;;;;;26.26;44.64;98350.06;5066923;28;20128;-58
2023/10/21 07:54:15;;;;;;;0.10;0.10;;;;;;;24.21;50.59;98353.00;5056522;28;20608;-59
2023/10/21 07:56:45;;;;;;;0.10;0.10;;;;;;;23.05;54.82;98347.16;5062151;28;20024;-59
2023/10/21 07:59:11;;;;;;;0.10;0.10;;;;;;;23.69;56.54;98349.03;5052357;28;20516;-59
2023/10/21 08:01:37;;;;;;;0.10;0.10;;;;;;;25.46;51.06;98351.75;5054514;28;20033;-59
2023/10/21 08:04:03;;;;;;;0.10;0.10;;;;;;;27.18;45.29;98347.41;5052475;28;20035;-59
2023/10/21 08:06:28;;;;;;;0.10;0.10;;;;;;;28.19;42.46;98358.81;5052845;28;20037;-59
2023/10/21 08:08:54;;;;;;;0.10;0.10;;;;;;;28.12;41.38;98355.19;5052144;28;20095;-59
2023/10/21 08:11:20;;;;;;;0.10;0.10;;;;;;;29.09;40.32;98358.63;5061327;28;20056;-59
2023/10/21 08:13:46;;;;;;;0.10;0.10;;;;;;;29.36;38.97;98369.44;5071868;28;20032;-59
2023/10/21 08:16:12;;;;;;;0.10;0.10;;;;;;;29.24;39.24;98376.56;5083517;28;20031;-59
2023/10/21 08:18:39;;;;;;;0.10;0.10;;;;;;;29.02;40.02;98372.28;5089629;28;20016;-59
2023/10/21 08:21:05;;;;;;;0.10;0.10;;;;;;;29.22;39.75;98375.09;5075055;28;20113;-59
2023/10/21 08:23:31;;;;;;;0.10;0.10;;;;;;;29.16;39.89;98365.81;5072926;28;20040;-59
2023/10/21 08:25:57;;;;;;;0.10;0.10;;;;;;;29.03;39.90;98373.09;5087525;28;20032;-58
2023/10/21 08:28:23;;;;;;;0.10;0.10;;;;;;;28.92;39.92;98381.94;5080704;28;20025;-59
2023/10/21 08:30:49;;;;;;;0.10;0.10;;;;;;;29.15;40.26;98393.41;5077401;28;20035;-59
2023/10/21 08:33:15;;;;;;;0.10;0.10;;;;;;;28.57;39.86;98391.28;5072274;28;20032;-59
2023/10/21 08:35:41;;;;;;;0.10;0.10;;;;;;;27.52;41.88;98392.31;5076681;28;20051;-60
2023/10/21 08:38:06;;;;;;;0.10;0.10;;;;;;;27.17;42.45;98411.25;5069799;28;20123;-59
2023/10/21 08:40:35;;;;;;;0.10;0.10;;;;;;;26.50;44.22;98411.66;5071661;28;20047;-59
2023/10/21 08:43:01;;;;;;;0.10;0.10;;;;;;;25.33;46.25;98408.66;5069448;28;20024;-59
2023/10/21 08:45:27;;;;;;;0.10;0.10;;;;;;;24.99;47.48;98413.63;5072176;28;20019;-59
2023/10/21 08:47:55;;;;;;;0.10;0.10;;;;;;;23.67;50.75;98423.53;5069027;28;20102;-59
2023/10/21 08:50:20;;;;;;;0.10;0.10;;;;;;;22.58;55.32;98435.53;5071547;28;20127;-59
2023/10/21 08:52:50;;;;;;;0.10;0.10;;;;;;;21.90;59.54;98433.75;5074685;28;20107;-59
2023/10/21 08:55:16;;;;;;;0.10;0.10;;;;;;;21.64;61.37;98427.44;5084514;28;20027;-59
2023/10/21 08:57:41;;;;;;;0.10;0.10;;;;;;;21.48;61.30;98430.03;5090059;28;20039;-59
2023/10/21 09:00:10;;;;;;;0.10;0.10;;;;;;;21.14;63.52;98429.03;5087202;28;20028;-59
2023/10/21 09:02:35;;;;;;;0.10;0.10;;;;;;;21.99;63.57;98430.09;5070931;28;20039;-59
2023/10/21 09:05:09;;;;;;;0.10;0.10;;;;;;;23.04;58.62;98424.16;5079138;28;20036;-58
2023/10/21 09:07:45;;;;;;;;;;;;;;;24.21;53.00;98420.06;5070919;28;20032;-59
2023/10/21 09:10:11;;;;;;;0.10;0.10;;;;;;;24.95;50.33;98423.19;5080893;28;19966;-57
2023/10/21 09:12:37;;;;;;;0.10;0.10;;;;;;;25.73;48.30;98440.19;5069872;28;20140;-57
2023/10/21 09:15:05;;;;;;;0.10;0.10;;;;;;;25.98;47.81;98433.47;5073736;28;20039;-57
2023/10/21 09:17:35;;;;;;;0.10;0.10;;;;;;;26.88;45.49;98437.78;5070980;28;20762;-57
2023/10/21 09:20:16;;;;;;;0.10;0.10;;;;;;;27.28;44.90;98429.06;5069896;28;20032;-57
2023/10/21 09:22:45;;;;;;;0.10;0.10;;;;;;;27.27;43.34;98437.41;5071436;28;20024;-57
2023/10/21 09:25:15;;;;;;;0.10;0.10;;;;;;;27.06;44.70;98443.69;5070046;28;20035;-57
2023/10/21 09:27:58;;;;;;;0.10;0.10;;;;;;;27.33;43.68;98448.41;5081416;28;20509;-57
2023/10/21 09:30:27;;;;;;;;;;;;;;;27.38;44.23;98445.13;5070289;28;20037;-57
2023/10/21 09:33:07;;;;;;;0.10;0.10;;;;;;;27.08;43.66;98444.34;5072010;28;20025;-57
2023/10/21 09:35:32;;;;;;;0.10;0.10;;;;;;;26.71;43.13;98453.53;5069826;28;20033;-57
2023/10/21 09:38:14;;;;;;;0.10;0.10;;;;;;;25.37;46.62;98450.84;5069211;28;20024;-58
2023/10/21 09:40:40;;;;;;;0.10;0.10;;;;;;;24.91;47.78;98443.59;5069954;28;20655;-58
2023/10/21 09:43:10;;;;;;;0.10;0.10;;;;;;;25.19;46.52;98442.09;5070057;28;20040;-57
2023/10/21 09:45:37;;;;;;;0.10;0.10;;;;;;;25.57;46.97;98449.34;5085111;28;20028;-57
2023/10/21 09:48:07;;;;;;;0.10;0.10;;;;;;;25.45;45.41;98442.59;5074433;28;20035;-58
2023/10/21 09:50:35;;;;;;;0.10;0.10;;;;;;;25.35;47.00;98439.31;5082394;28;20783;-57
2023/10/21 09:53:11;;;;;;;0.10;0.10;;;;;;;25.60;46.61;98446.25;5072142;28;20171;-57
2023/10/21 09:55:36;;;;;;;0.10;0.10;;;;;;;25.57;45.27;98443.03;5069985;28;20407;-58
2023/10/21 09:58:04;;;;;;;0.10;0.10;;;;;;;25.08;46.24;98447.94;5071713;28;20058;-58
2023/10/21 10:00:30;;;;;;;0.10;0.10;;;;;;;24.53;47.24;98452.56;5080556;28;20426;-58
2023/10/21 10:02:55;;;;;;;0.10;0.10;;;;;;;24.25;47.95;98456.78;5076198;28;20043;-58
2023/10/21 10:05:22;;;;;;;0.10;0.10;;;;;;;24.55;47.30;98451.41;5072098;28;20396;-57
2023/10/21 10:07:48;;;;;;;0.10;0.10;;;;;;;25.20;47.36;98457.41;5080335;28;20044;-58
2023/10/21 10:10:15;;;;;;;0.10;0.10;;;;;;;25.42;46.18;98448.41;5086740;28;20036;-57
2023/10/21 10:12:52;;;;;;;0.10;0.10;;;;;;;25.70;45.65;98452.28;5078453;28;20155;-58
2023/10/21 10:15:37;;;;;;;0.10;0.10;;;;;;;25.39;46.33;98443.34;5069290;28;20032;-58
2023/10/21 10:18:03;;;;;;;0.10;0.10;;;;;;;25.07;45.39;98448.13;5069673;28;20099;-58
2023/10/21 10:20:30;;;;;;;0.10;0.10;;;;;;;24.87;44.97;98442.28;5076577;28;20085;-58
2023/10/21 10:23:00;;;;;;;0.10;0.10;;;;;;;24.67;45.74;98443.69;5078926;28;20101;-58
2023/10/21 10:25:27;;;;;;;0.10;0.10;;;;;;;25.00;46.48;98448.00;5084586;28;20047;-58
2023/10/21 10:28:00;;;;;;;0.10;0.10;;;;;;;24.53;45.90;98447.13;5084296;28;20030;-60
2023/10/21 10:30:32;;;;;;;0.10;0.10;;;;;;;23.80;48.58;98445.59;5078518;28;20039;-60
2023/10/21 10:33:08;;;;;;;0.10;0.10;;;;;;;23.43;50.62;98452.38;5078627;28;20434;-60
2023/10/21 10:35:37;;;;;;;0.10;0.10;;;;;;;23.09;48.68;98453.47;5069369;28;20109;-60
2023/10/21 10:38:16;;;;;;;0.10;0.10;;;;;;;22.91;49.92;98452.75;5072796;28;20012;-60
2023/10/21 10:40:44;;;;;;;0.10;0.10;;;;;;;22.64;50.55;98456.53;5068898;28;20490;-60
2023/10/21 10:43:17;;;;;;;0.10;0.10;;;;;;;22.52;50.56;98459.69;5073997;28;20028;-60
2023/10/21 10:45:43;;;;;;;0.10;0.10;;;;;;;23.58;50.04;98441.69;5068480;28;20024;-58
2023/10/21 10:48:09;;;;;;;0.10;0.10;;;;;;;24.69;45.62;98455.28;5069062;28;20085;-58
2023/10/21 10:50:38;;;;;;;0.10;0.10;;;;;;;25.07;45.41;98459.88;5071484;28;20032;-58
2023/10/21 10:53:14;;;;;;;0.10;0.10;;;;;;;25.10;45.81;98454.06;5075860;28;20032;-58
2023/10/21 10:55:46;;;;;;;0.10;0.10;;;;;;;24.92;45.96;98458.94;5076173;28;20024;-58
2023/10/21 10:58:11;;;;;;;0.10;0.10;;;;;;;24.52;45.76;98464.50;5088319;28;20453;-58
2023/10/21 11:00:39;;;;;;;0.10;0.10;;;;;;;23.99;47.69;98467.84;5075385;28;20040;-58
2023/10/21 11:03:06;;;;;;;0.10;0.10;;;;;;;23.88;47.21;98462.72;5068946;28;20032;-58
2023/10/21 11:05:32;;;;;;;0.10;0.10;;;;;;;24.35;46.38;98462.81;5073154;28;20102;-59
2023/10/21 11:07:57;;;;;;;0.10;0.10;;;;;;;25.29;46.41;98469.06;5073748;28;20032;-59
2023/10/21 11:10:24;;;;;;;0.10;0.10;;;;;;;24.77;44.87;98455.25;5069385;28;20039;-59
2023/10/21 11:12:51;;;;;;;0.10;0.10;;;;;;;24.73;44.28;98459.34;5069785;28;20106;-59
2023/10/21 11:15:16;;;;;;;0.10;0.10;;;;;;;24.62;43.79;98467.84;5067918;28;20024;-59
2023/10/21 11:17:50;;;;;;;0.10;0.10;;;;;;;25.26;44.16;98461.25;5070256;28;20752;-59
2023/10/21 11:20:16;;;;;;;0.10;0.10;;;;;;;25.38;42.34;98454.41;5068876;28;20106;-59
2023/10/21 11:22:42;;;;;;;0.10;0.10;;;;;;;25.73;41.94;98453.81;5081896;28;20028;-59
2023/10/21 11:25:08;;;;;;;0.10;0.10;;;;;;;26.16;42.97;98458.53;5078160;28;20062;-59
2023/10/21 11:27:35;;;;;;;0.10;0.10;;;;;;;26.33;41.26;98448.31;5070661;28;20722;-59
2023/10/21 11:30:07;;;;;;;0.10;0.10;;;;;;;26.23;39.93;98450.50;5074275;28;20039;-59
2023/10/21 11:32:34;;;;;;;0.10;0.10;;;;;;;26.56;41.63;98457.25;5079421;28;20128;-59